createdAt,value
2023-01-17T00:02:20.951Z,3.50
2023-01-17T00:05:07.113Z,3.40
2023-01-17T00:07:53.414Z,3.85
2023-01-17T00:10:26.004Z,4.43
2023-01-17T00:13:00.941Z,6.68
2023-01-17T00:15:29.841Z,8.35
2023-01-17T00:17:57.925Z,7.45
2023-01-17T00:20:46.229Z,6.78
2023-01-17T00:23:41.403Z,6.28
2023-01-17T00:26:14.708Z,7.03
2023-01-17T00:28:43.353Z,7.30
2023-01-17T00:31:13.950Z,6.95
2023-01-17T00:33:41.783Z,7.80
2023-01-17T00:36:10.005Z,7.22
2023-01-17T00:38:38.532Z,8.32
2023-01-17T00:41:10.845Z,5.60
2023-01-17T00:43:57.211Z,5.05
2023-01-17T00:46:43.814Z,5.03
2023-01-17T00:49:29.801Z,5.72
2023-01-17T00:52:15.898Z,5.53
2023-01-17T00:55:02.316Z,5.18
2023-01-17T00:57:48.911Z,4.03
2023-01-17T01:00:38.119Z,3.03
2023-01-17T01:03:29.372Z,3.50
2023-01-17T01:06:15.534Z,3.22
2023-01-17T01:09:01.525Z,3.55
2023-01-17T01:11:48.079Z,2.80
2023-01-17T01:14:34.099Z,3.88
2023-01-17T01:17:20.380Z,3.95
2023-01-17T01:20:06.995Z,3.83
2023-01-17T01:22:52.889Z,4.68
2023-01-17T01:25:39.519Z,3.75
2023-01-17T01:28:28.641Z,3.58
2023-01-17T01:31:14.667Z,6.10
2023-01-17T01:33:42.592Z,3.70
2023-01-17T01:36:10.435Z,3.38
2023-01-17T01:38:38.186Z,3.92
2023-01-17T01:41:06.135Z,2.53
2023-01-17T01:43:43.427Z,3.20
2023-01-17T01:46:13.444Z,3.55
2023-01-17T01:49:03.657Z,2.90
2023-01-17T01:51:39.442Z,4.45
2023-01-17T01:54:10.714Z,3.42
2023-01-17T01:56:39.322Z,4.32
2023-01-17T01:59:09.021Z,4.65
2023-01-17T02:01:37.199Z,3.60
2023-01-17T02:04:05.397Z,4.22
2023-01-17T02:06:34.861Z,3.83
2023-01-17T02:09:08.129Z,3.97
2023-01-17T02:11:37.189Z,4.15
2023-01-17T02:14:04.996Z,4.85
2023-01-17T02:16:51.023Z,4.40
2023-01-17T02:19:36.924Z,5.05
2023-01-17T02:22:26.408Z,4.90
2023-01-17T02:25:24.350Z,5.43
2023-01-17T02:28:10.458Z,5.20
2023-01-17T02:30:42.194Z,4.65
2023-01-17T02:33:14.730Z,5.97
2023-01-17T02:35:54.688Z,6.40
2023-01-17T02:38:32.693Z,7.03
2023-01-17T02:41:09.367Z,7.88
2023-01-17T02:43:37.307Z,5.28
2023-01-17T02:46:05.226Z,7.30
2023-01-17T02:48:33.853Z,4.85
2023-01-17T02:51:24.590Z,7.25
2023-01-17T02:53:57.197Z,6.57
2023-01-17T02:56:46.484Z,5.90
2023-01-17T02:59:33.328Z,7.22
2023-01-17T03:02:08.911Z,5.35
2023-01-17T03:04:52.201Z,5.53
2023-01-17T03:07:22.410Z,6.55
2023-01-17T03:09:54.043Z,5.22
2023-01-17T03:12:22.064Z,5.30
2023-01-17T03:14:50.123Z,5.28
2023-01-17T03:17:18.014Z,5.15
2023-01-17T03:19:45.751Z,5.03
2023-01-17T03:22:13.578Z,5.80
2023-01-17T03:24:41.388Z,6.20
2023-01-17T03:27:09.214Z,5.72
2023-01-17T03:29:37.045Z,4.50
2023-01-17T03:32:04.977Z,4.82
2023-01-17T03:34:32.853Z,4.22
2023-01-17T03:37:00.580Z,4.20
2023-01-17T03:39:28.675Z,4.32
2023-01-17T03:41:56.429Z,5.57
2023-01-17T03:44:24.267Z,5.70
2023-01-17T03:46:52.201Z,5.85
2023-01-17T03:49:20.045Z,5.28
2023-01-17T03:51:47.960Z,6.15
2023-01-17T03:54:15.846Z,5.88
2023-01-17T03:56:43.768Z,5.65
2023-01-17T03:59:13.169Z,4.90
2023-01-17T04:01:41.174Z,4.78
2023-01-17T04:04:09.096Z,4.88
2023-01-17T04:06:37.110Z,4.05
2023-01-17T04:09:04.957Z,4.30
2023-01-17T04:11:32.840Z,4.25
2023-01-17T04:14:00.677Z,4.18
2023-01-17T04:16:31.857Z,4.75
2023-01-17T04:18:59.915Z,5.38
2023-01-17T04:21:27.876Z,5.45
2023-01-17T04:23:55.782Z,3.80
2023-01-17T04:26:23.557Z,4.05
2023-01-17T04:28:51.571Z,4.15
2023-01-17T04:31:19.473Z,4.70
2023-01-17T04:33:47.329Z,5.30
2023-01-17T04:36:15.093Z,5.20
2023-01-17T04:38:43.203Z,4.72
2023-01-17T04:41:10.972Z,4.20
2023-01-17T04:43:38.770Z,4.30
2023-01-17T04:46:10.385Z,3.63
2023-01-17T04:48:38.352Z,4.07
2023-01-17T04:51:06.383Z,3.15
2023-01-17T04:53:34.135Z,2.72
2023-01-17T04:56:02.566Z,3.80
2023-01-17T04:58:30.651Z,2.58
2023-01-17T05:01:05.309Z,2.95
2023-01-17T05:03:34.866Z,3.40
2023-01-17T05:06:02.789Z,3.83
2023-01-17T05:08:30.769Z,3.30
2023-01-17T05:10:58.644Z,3.45
2023-01-17T05:13:26.560Z,3.50
2023-01-17T05:15:54.404Z,3.08
2023-01-17T05:18:22.187Z,2.72
2023-01-17T05:20:50.109Z,3.28
2023-01-17T05:23:18.039Z,4.38
2023-01-17T05:25:46.043Z,4.10
2023-01-17T05:28:13.820Z,3.85
2023-01-17T05:30:41.831Z,4.03
2023-01-17T05:33:10.566Z,3.22
2023-01-17T05:35:38.569Z,3.25
2023-01-17T05:38:06.318Z,2.70
2023-01-17T05:40:34.440Z,3.95
2023-01-17T05:43:03.750Z,2.67
2023-01-17T05:45:32.737Z,2.67
2023-01-17T05:48:00.845Z,3.13
2023-01-17T05:50:30.801Z,3.47
2023-01-17T05:53:03.667Z,4.20
2023-01-17T05:57:59.478Z,2.80
2023-01-17T06:00:27.597Z,2.92
2023-01-17T06:02:56.346Z,3.65
2023-01-17T06:05:24.369Z,2.63
2023-01-17T06:07:52.188Z,3.25
2023-01-17T06:10:21.268Z,3.08
2023-01-17T06:12:49.352Z,3.30
2023-01-17T06:15:18.058Z,3.40
2023-01-17T06:17:45.933Z,4.63
2023-01-17T06:20:13.899Z,4.35
2023-01-17T06:22:41.686Z,4.40
2023-01-17T06:25:09.863Z,5.03
2023-01-17T06:27:37.633Z,4.60
2023-01-17T06:30:05.872Z,4.32
2023-01-17T06:32:33.771Z,3.58
2023-01-17T06:35:01.693Z,5.72
2023-01-17T06:37:29.656Z,4.47
2023-01-17T06:39:57.612Z,6.35
2023-01-17T06:42:25.488Z,5.88
2023-01-17T06:44:53.178Z,6.93
2023-01-17T06:47:21.104Z,4.88
2023-01-17T06:49:48.973Z,3.60
2023-01-17T06:52:16.710Z,3.80
2023-01-17T06:54:44.619Z,3.42
2023-01-17T06:57:12.404Z,3.67
2023-01-17T06:59:40.449Z,3.10
2023-01-17T07:02:10.929Z,2.80
2023-01-17T07:04:38.777Z,3.20
2023-01-17T07:07:06.593Z,3.75
2023-01-17T07:09:34.508Z,4.85
2023-01-17T07:12:02.531Z,5.60
2023-01-17T07:14:30.534Z,5.85
2023-01-17T07:16:58.407Z,6.95
2023-01-17T07:19:26.232Z,5.70
2023-01-17T07:21:54.573Z,5.03
2023-01-17T07:24:22.441Z,3.55
2023-01-17T07:26:53.607Z,3.28
2023-01-17T07:29:21.708Z,2.63
2023-01-17T07:31:49.507Z,3.10
2023-01-17T07:34:17.240Z,3.22
2023-01-17T07:36:45.153Z,3.22
2023-01-17T07:39:13.097Z,3.08
2023-01-17T07:41:41.729Z,4.05
2023-01-17T07:44:11.134Z,3.40
2023-01-17T07:46:39.140Z,3.75
2023-01-17T07:49:06.898Z,3.22
2023-01-17T07:51:34.749Z,3.50
2023-01-17T07:54:02.636Z,4.10
2023-01-17T07:56:30.427Z,3.67
2023-01-17T07:58:58.312Z,4.30
2023-01-17T08:01:26.244Z,4.07
2023-01-17T08:03:55.214Z,4.15
2023-01-17T08:06:24.919Z,3.78
2023-01-17T08:08:59.407Z,3.38
2023-01-17T08:11:27.126Z,3.83
2023-01-17T08:13:59.943Z,5.45
2023-01-17T08:16:29.003Z,4.00
2023-01-17T08:18:57.286Z,4.38
2023-01-17T08:21:25.321Z,4.20
2023-01-17T08:23:53.366Z,3.28
2023-01-17T08:26:22.647Z,3.33
2023-01-17T08:29:03.135Z,3.42
2023-01-17T08:31:32.693Z,4.20
2023-01-17T08:34:00.567Z,3.80
2023-01-17T08:36:29.226Z,3.78
2023-01-17T08:38:57.223Z,3.30
2023-01-17T08:41:25.309Z,4.07
2023-01-17T08:43:53.159Z,3.90
2023-01-17T08:46:20.974Z,3.95
2023-01-17T08:48:48.826Z,3.40
2023-01-17T08:51:16.655Z,3.95
2023-01-17T08:53:44.476Z,4.22
2023-01-17T08:56:12.532Z,2.95
2023-01-17T08:58:41.894Z,3.35
2023-01-17T09:01:10.020Z,3.90
2023-01-17T09:03:40.702Z,3.70
2023-01-17T09:06:15.842Z,4.45
2023-01-17T09:08:50.172Z,4.15
2023-01-17T09:11:18.348Z,6.85
2023-01-17T09:13:46.565Z,11.98
2023-01-17T09:16:14.659Z,6.30
2023-01-17T09:18:42.538Z,3.95
2023-01-17T09:21:17.436Z,3.63
2023-01-17T09:23:45.803Z,4.50
2023-01-17T09:26:19.766Z,4.00
2023-01-17T09:28:47.720Z,4.53
2023-01-17T09:31:17.482Z,4.38
2023-01-17T09:33:45.557Z,4.50
2023-01-17T09:36:13.621Z,4.30
2023-01-17T09:38:41.473Z,5.03
2023-01-17T09:41:59.184Z,4.88
2023-01-17T09:44:28.371Z,4.28
2023-01-17T09:47:03.346Z,4.90
2023-01-17T09:49:33.206Z,4.85
2023-01-17T09:52:01.235Z,5.65
2023-01-17T09:54:36.314Z,5.55
2023-01-17T09:57:17.981Z,5.95
2023-01-17T10:00:02.897Z,4.97
2023-01-17T10:02:50.311Z,4.38
2023-01-17T10:05:29.552Z,4.88
2023-01-17T10:08:28.317Z,4.60
2023-01-17T10:11:34.766Z,3.75
2023-01-17T10:14:23.772Z,4.55
2023-01-17T10:17:19.079Z,6.88
2023-01-17T10:20:24.843Z,6.75
2023-01-17T10:22:55.732Z,6.75
2023-01-17T10:25:45.413Z,7.43
2023-01-17T10:28:14.439Z,4.35
2023-01-17T10:30:53.064Z,4.47
2023-01-17T10:33:27.492Z,3.58
2023-01-17T10:36:00.044Z,4.32
2023-01-17T10:38:31.683Z,4.05
2023-01-17T10:41:11.425Z,4.13
2023-01-17T10:43:45.789Z,6.18
2023-01-17T10:46:20.030Z,5.03
2023-01-17T10:48:48.707Z,4.22
2023-01-17T10:51:22.441Z,4.75
2023-01-17T10:54:02.047Z,4.93
2023-01-17T10:56:29.929Z,4.47
2023-01-17T10:59:17.323Z,4.25
2023-01-17T11:01:45.454Z,4.40
2023-01-17T11:04:41.040Z,4.57
2023-01-17T11:07:21.954Z,4.65
2023-01-17T11:09:54.325Z,5.72
2023-01-17T11:12:39.761Z,5.95
2023-01-17T11:15:10.542Z,8.32
2023-01-17T11:17:42.441Z,9.20
2023-01-17T11:20:26.613Z,7.40
2023-01-17T11:23:21.726Z,7.00
2023-01-17T11:25:59.926Z,5.90
2023-01-17T11:28:32.320Z,5.53
2023-01-17T11:31:01.993Z,5.60
2023-01-17T11:33:35.937Z,6.28
2023-01-17T11:36:03.754Z,7.82
2023-01-17T11:38:31.691Z,9.02
2023-01-17T11:41:20.767Z,9.68
2023-01-17T11:43:56.332Z,8.48
2023-01-17T11:46:29.780Z,7.00
2023-01-17T11:49:00.003Z,5.90
2023-01-17T11:51:35.955Z,5.07
2023-01-17T11:54:15.418Z,5.20
2023-01-17T11:56:46.611Z,4.25
2023-01-17T11:59:33.897Z,4.70
2023-01-17T12:02:24.651Z,8.55
2023-01-17T12:05:10.659Z,11.15
2023-01-17T12:07:44.081Z,9.10
2023-01-17T12:10:29.348Z,6.32
2023-01-17T12:13:42.557Z,8.75
2023-01-17T12:16:31.853Z,4.93
2023-01-17T12:19:19.290Z,4.35
2023-01-17T12:22:23.125Z,4.15
2023-01-17T12:25:18.137Z,3.95
2023-01-17T12:28:04.389Z,4.22
2023-01-17T12:30:44.325Z,4.13
2023-01-17T12:33:53.166Z,5.80
2023-01-17T12:36:36.573Z,6.85
2023-01-17T12:39:10.625Z,6.80
2023-01-17T12:41:52.497Z,6.85
2023-01-17T12:44:20.562Z,7.50
2023-01-17T12:46:54.866Z,7.97
2023-01-17T12:49:48.823Z,8.55
2023-01-17T12:52:27.925Z,7.30
2023-01-17T12:55:01.722Z,7.10
2023-01-17T12:57:47.236Z,7.88
2023-01-17T13:00:20.080Z,7.43
2023-01-17T13:05:36.789Z,4.95
2023-01-17T13:08:14.103Z,6.83
2023-01-17T13:11:17.649Z,6.38
2023-01-17T13:16:15.373Z,6.00
2023-01-17T13:18:47.889Z,5.47
2023-01-17T13:21:21.776Z,5.40
2023-01-17T13:24:06.380Z,4.97
2023-01-17T13:26:59.667Z,3.60
2023-01-17T13:32:35.889Z,4.72
2023-01-17T13:35:15.243Z,6.38
2023-01-17T13:37:48.958Z,8.02
2023-01-17T13:40:56.170Z,9.40
2023-01-17T13:43:26.587Z,4.18
2023-01-17T13:45:58.689Z,6.47
2023-01-17T13:48:28.467Z,4.45
2023-01-17T13:50:58.476Z,5.30
2023-01-17T13:53:35.498Z,5.40
2023-01-17T13:56:29.189Z,4.20
2023-01-17T13:59:02.530Z,6.30
2023-01-17T14:01:35.312Z,5.32
2023-01-17T14:06:49.211Z,4.72
2023-01-17T14:09:27.386Z,5.22
2023-01-17T14:11:58.232Z,4.72
2023-01-17T14:14:41.437Z,5.07
2023-01-17T14:17:21.499Z,5.40
2023-01-17T14:19:53.599Z,5.65
2023-01-17T14:22:21.451Z,5.28
2023-01-17T14:25:17.823Z,4.78
2023-01-17T14:27:52.960Z,5.15
2023-01-17T14:30:34.745Z,5.70
2023-01-17T14:33:02.539Z,4.57
2023-01-17T14:35:36.039Z,5.40
2023-01-17T14:38:06.112Z,7.43
2023-01-17T14:40:34.854Z,7.28
2023-01-17T14:43:08.296Z,7.43
2023-01-17T14:45:36.228Z,7.75
2023-01-17T14:48:06.223Z,7.53
2023-01-17T14:50:42.670Z,5.90
2023-01-17T14:53:15.889Z,7.00
2023-01-17T14:55:49.753Z,9.07
2023-01-17T14:58:26.461Z,6.93
2023-01-17T15:01:00.472Z,7.15
2023-01-17T15:03:29.380Z,5.97
2023-01-17T15:05:57.584Z,6.78
2023-01-17T15:08:35.901Z,4.50
2023-01-17T15:11:05.805Z,4.80
2023-01-17T15:13:45.463Z,4.70
2023-01-17T15:16:26.832Z,4.18
2023-01-17T15:18:55.459Z,4.50
2023-01-17T15:21:33.882Z,4.18
2023-01-17T15:24:04.341Z,4.20
2023-01-17T15:26:34.976Z,3.75
2023-01-17T15:29:07.282Z,5.43
2023-01-17T15:32:17.354Z,5.72
2023-01-17T15:34:45.735Z,4.85
2023-01-17T15:37:42.794Z,5.07
2023-01-17T15:40:24.491Z,5.80
2023-01-17T15:42:59.872Z,4.90
2023-01-17T15:45:32.364Z,5.78
2023-01-17T15:48:37.085Z,5.25
2023-01-17T15:51:05.127Z,5.20
2023-01-17T15:53:37.514Z,7.75
2023-01-17T15:56:32.845Z,5.28
2023-01-17T15:59:48.407Z,5.53
2023-01-17T16:02:27.888Z,5.25
2023-01-17T16:04:55.824Z,5.05
2023-01-17T16:07:34.690Z,5.20
2023-01-17T16:10:06.617Z,5.20
2023-01-17T16:12:34.476Z,4.40
2023-01-17T16:15:12.400Z,4.60
2023-01-17T16:17:41.676Z,5.32
2023-01-17T16:20:16.270Z,6.38
2023-01-17T16:22:44.403Z,5.75
2023-01-17T16:25:20.144Z,6.30
2023-01-17T16:27:48.490Z,4.70
2023-01-17T16:30:20.487Z,4.50
2023-01-17T16:32:51.929Z,5.93
2023-01-17T16:35:21.612Z,5.70
2023-01-17T16:37:53.833Z,6.32
2023-01-17T16:40:23.281Z,5.00
2023-01-17T16:42:51.134Z,6.75
2023-01-17T16:45:19.258Z,5.28
2023-01-17T16:47:48.034Z,5.13
2023-01-17T16:50:17.581Z,4.32
2023-01-17T16:52:45.470Z,4.00
2023-01-17T16:55:14.298Z,4.93
2023-01-17T16:57:42.464Z,4.68
2023-01-17T17:00:11.253Z,4.30
2023-01-17T17:02:39.784Z,4.30
2023-01-17T17:05:08.987Z,4.35
2023-01-17T17:07:37.900Z,3.65
2023-01-17T17:10:06.140Z,4.13
2023-01-17T17:12:34.251Z,3.58
2023-01-17T17:15:02.170Z,3.67
2023-01-17T17:17:30.040Z,4.50
2023-01-17T17:19:57.896Z,4.35
2023-01-17T17:22:25.702Z,4.40
2023-01-17T17:24:53.589Z,4.25
2023-01-17T17:27:26.687Z,4.30
2023-01-17T17:29:54.692Z,4.78
2023-01-17T17:32:22.703Z,5.63
2023-01-17T17:34:53.576Z,5.55
2023-01-17T17:37:22.872Z,5.18
2023-01-17T17:39:50.651Z,5.40
2023-01-17T17:42:20.397Z,5.22
2023-01-17T17:44:48.365Z,4.30
2023-01-17T17:47:16.732Z,5.78
2023-01-17T17:49:44.602Z,4.80
2023-01-17T17:52:13.125Z,5.55
2023-01-17T17:54:41.076Z,5.13
2023-01-17T17:57:09.084Z,4.40
2023-01-17T17:59:36.836Z,4.43
2023-01-17T18:02:11.136Z,4.55
2023-01-17T18:04:39.341Z,3.63
2023-01-17T18:07:07.291Z,4.03
2023-01-17T18:09:35.267Z,4.20
2023-01-17T18:12:03.778Z,4.10
2023-01-17T18:14:31.728Z,5.07
2023-01-17T18:16:59.617Z,4.00
2023-01-17T18:19:29.459Z,5.30
2023-01-17T18:21:58.506Z,5.63
2023-01-17T18:24:27.225Z,5.10
2023-01-17T18:26:59.279Z,4.07
2023-01-17T18:29:27.590Z,3.50
2023-01-17T18:31:55.437Z,3.65
2023-01-17T18:34:27.261Z,4.00
2023-01-17T18:36:55.275Z,4.13
2023-01-17T18:39:25.805Z,4.15
2023-01-17T18:41:54.350Z,4.05
2023-01-17T18:44:22.634Z,4.63
2023-01-17T18:47:02.291Z,5.13
2023-01-17T18:49:30.078Z,4.80
2023-01-17T18:51:57.948Z,4.50
2023-01-17T18:54:26.775Z,4.90
2023-01-17T18:56:55.929Z,5.03
2023-01-17T18:59:23.880Z,4.13
2023-01-17T19:01:52.588Z,4.22
2023-01-17T19:04:20.862Z,4.38
2023-01-17T19:06:49.464Z,4.47
2023-01-17T19:09:17.482Z,5.80
2023-01-17T19:11:46.567Z,4.93
2023-01-17T19:14:14.884Z,4.45
2023-01-17T19:16:43.181Z,4.28
2023-01-17T19:19:13.322Z,4.53
2023-01-17T19:21:41.241Z,5.47
2023-01-17T19:24:10.129Z,6.53
2023-01-17T19:26:38.466Z,5.85
2023-01-17T19:29:07.300Z,6.13
2023-01-17T19:31:40.080Z,5.07
2023-01-17T19:36:36.751Z,3.97
2023-01-17T19:39:06.573Z,4.38
2023-01-17T19:41:35.834Z,4.78
2023-01-17T19:44:05.416Z,3.92
2023-01-17T19:46:33.615Z,3.65
2023-01-17T19:49:01.588Z,3.75
2023-01-17T19:51:29.492Z,3.58
2023-01-17T19:53:59.547Z,4.53
2023-01-17T19:56:27.563Z,3.58
2023-01-17T19:58:57.504Z,3.38
2023-01-17T20:01:28.127Z,3.80
2023-01-17T20:03:57.954Z,3.58
2023-01-17T20:06:29.239Z,2.97
2023-01-17T20:08:57.156Z,2.80
2023-01-17T20:11:25.502Z,3.20
2023-01-17T20:13:54.835Z,2.80
2023-01-17T20:16:23.392Z,3.13
2023-01-17T20:18:51.467Z,2.90
2023-01-17T20:21:23.978Z,2.58
2023-01-17T20:23:52.555Z,2.90
2023-01-17T20:26:22.669Z,2.78
2023-01-17T20:28:51.974Z,3.05
2023-01-17T20:31:21.672Z,2.78
2023-01-17T20:33:52.575Z,3.17
2023-01-17T20:36:21.538Z,3.63
2023-01-17T20:38:49.470Z,3.60
2023-01-17T20:41:21.190Z,3.67
2023-01-17T20:43:53.495Z,4.10
2023-01-17T20:46:22.431Z,3.50
2023-01-17T20:48:54.746Z,4.05
2023-01-17T20:51:23.550Z,4.40
2023-01-17T20:53:52.690Z,3.58
2023-01-17T20:56:20.808Z,3.97
2023-01-17T20:58:49.586Z,4.65
2023-01-17T21:01:23.167Z,4.38
2023-01-17T21:03:53.478Z,4.25
2023-01-17T21:06:23.004Z,4.70
2023-01-17T21:08:51.363Z,4.07
2023-01-17T21:11:24.366Z,4.07
2023-01-17T21:13:52.338Z,4.72
2023-01-17T21:16:21.590Z,4.78
2023-01-17T21:18:50.477Z,5.22
2023-01-17T21:21:22.780Z,5.40
2023-01-17T21:23:51.495Z,5.90
2023-01-17T21:26:19.741Z,6.30
2023-01-17T21:28:48.024Z,7.78
2023-01-17T21:31:25.594Z,6.55
2023-01-17T21:34:01.043Z,6.68
2023-01-17T21:36:31.066Z,6.80
2023-01-17T21:38:59.593Z,8.05
2023-01-17T21:41:29.912Z,6.50
2023-01-17T21:43:59.336Z,9.52
2023-01-17T21:46:27.593Z,6.95
2023-01-17T21:48:57.170Z,7.22
2023-01-17T21:51:25.320Z,7.00
2023-01-17T21:53:53.085Z,7.10
2023-01-17T21:56:39.558Z,5.60
2023-01-17T21:59:07.529Z,4.70
2023-01-17T22:01:35.556Z,4.38
2023-01-17T22:04:04.387Z,4.05
2023-01-17T22:06:34.770Z,1.67
2023-01-17T22:09:03.758Z,1.73
2023-01-17T22:11:31.692Z,1.02
2023-01-17T22:13:59.561Z,1.63
2023-01-17T22:16:27.337Z,1.20
2023-01-17T22:18:55.172Z,1.55
2023-01-17T22:21:28.501Z,0.80
2023-01-17T22:23:57.724Z,0.98
2023-01-17T22:26:30.327Z,0.90
2023-01-17T22:29:01.379Z,1.02
2023-01-17T22:31:29.405Z,1.27
2023-01-17T22:33:58.029Z,1.20
2023-01-17T22:36:26.019Z,1.30
2023-01-17T22:38:53.948Z,1.88
2023-01-17T22:41:28.243Z,1.20
2023-01-17T22:43:58.521Z,1.30
2023-01-17T22:46:27.983Z,1.30
2023-01-17T22:48:55.941Z,1.17
2023-01-17T22:51:24.619Z,1.13
2023-01-17T22:53:57.210Z,1.10
2023-01-17T22:56:27.076Z,1.75
2023-01-17T22:58:54.996Z,1.17
2023-01-17T23:01:24.621Z,1.20
2023-01-17T23:03:54.163Z,0.68
2023-01-17T23:06:28.512Z,0.90
2023-01-17T23:08:57.593Z,1.10
2023-01-17T23:11:46.475Z,1.02
2023-01-17T23:14:24.067Z,0.80
2023-01-17T23:17:20.589Z,1.00
2023-01-17T23:19:52.912Z,0.77
2023-01-17T23:22:28.107Z,1.02
2023-01-17T23:25:00.926Z,1.13
2023-01-17T23:27:57.921Z,0.95
2023-01-17T23:30:35.093Z,0.80
2023-01-17T23:33:07.148Z,0.90
2023-01-17T23:35:41.209Z,0.63
2023-01-17T23:38:31.190Z,0.65
2023-01-17T23:41:26.726Z,0.73
2023-01-17T23:43:55.998Z,1.02
2023-01-17T23:46:25.760Z,0.77
2023-01-17T23:48:55.407Z,0.80
2023-01-17T23:51:23.288Z,1.10
2023-01-17T23:53:55.625Z,0.57
2023-01-17T23:56:23.792Z,0.93
2023-01-17T23:58:51.768Z,0.88
